Time;durP1;ratioP1;P1;durP2;ratioP2;P2;SDS_P1;SDS_P2;PMS_P1;PMS_P2;Temp;Humidity;BMP_temperature;BMP_pressure;BME280_temperature;BME280_humidity;BME280_pressure;Samples;Min_cycle;Max_cycle;Signal;HPM_P1;HPM_P2
2023/07/25 00:00:35;;;;;;;8.05;5.28;;;26.00;75.30;;;;;;6171797;27;81786;-59
2023/07/25 00:03:36;;;;;;;8.52;5.22;;;25.90;75.00;;;;;;6180565;27;82266;-59
2023/07/25 00:06:36;;;;;;;6.65;5.00;;;25.90;75.00;;;;;;6164917;27;81744;-59
2023/07/25 00:09:37;;;;;;;10.13;5.75;;;25.90;74.90;;;;;;6175308;27;81371;-59
2023/07/25 00:12:37;;;;;;;8.63;5.57;;;26.00;74.80;;;;;;6185799;27;80574;-59
2023/07/25 00:15:38;;;;;;;10.18;5.05;;;25.90;74.90;;;;;;6173048;27;80522;-59
2023/07/25 00:18:38;;;;;;;11.35;6.20;;;25.90;75.10;;;;;;6172795;27;81655;-58
2023/07/25 00:21:39;;;;;;;9.63;5.03;;;25.90;75.00;;;;;;6159334;27;80637;-59
2023/07/25 00:24:39;;;;;;;7.93;5.18;;;25.90;75.00;;;;;;6164681;27;82198;-59
2023/07/25 00:27:40;;;;;;;7.70;4.78;;;25.90;75.00;;;;;;6152497;27;80433;-58
2023/07/25 00:30:40;;;;;;;8.10;5.28;;;25.90;74.80;;;;;;6175052;27;82876;-60
2023/07/25 00:33:41;;;;;;;8.55;5.22;;;25.90;74.90;;;;;;6164038;27;83743;-58
2023/07/25 00:36:41;;;;;;;7.50;5.22;;;25.90;74.90;;;;;;6137663;27;84740;-58
2023/07/25 00:39:42;;;;;;;7.20;4.63;;;25.80;74.70;;;;;;6173229;27;80392;-59
2023/07/25 00:42:42;;;;;;;8.50;5.80;;;25.90;74.80;;;;;;6158402;27;81434;-59
2023/07/25 00:45:43;;;;;;;12.05;5.40;;;25.90;74.70;;;;;;6173067;27;80998;-58
2023/07/25 00:48:43;;;;;;;7.85;5.30;;;25.90;74.20;;;;;;6150921;27;82368;-58
2023/07/25 00:51:44;;;;;;;9.52;5.20;;;25.90;74.60;;;;;;6142302;27;83643;-58
2023/07/25 00:54:45;;;;;;;8.25;5.13;;;25.80;74.10;;;;;;6145170;27;82019;-58
2023/07/25 00:57:45;;;;;;;9.35;5.43;;;25.80;74.00;;;;;;6164262;27;81918;-59
2023/07/25 01:00:46;;;;;;;8.45;5.55;;;25.80;73.90;;;;;;6167430;27;80538;-61
2023/07/25 01:03:46;;;;;;;9.27;5.70;;;25.80;73.80;;;;;;6156982;27;82249;-61
2023/07/25 01:06:47;;;;;;;7.72;5.28;;;25.90;73.70;;;;;;6167366;27;83824;-65
2023/07/25 01:09:47;;;;;;;9.80;5.97;;;25.90;73.50;;;;;;6163020;27;80374;-66
2023/07/25 01:12:48;;;;;;;12.25;6.32;;;25.90;73.10;;;;;;6173369;27;80622;-65
2023/07/25 01:15:48;;;;;;;12.20;5.93;;;25.80;72.90;;;;;;6169557;27;82499;-63
2023/07/25 01:18:49;;;;;;;10.27;5.57;;;25.70;73.10;;;;;;6177190;27;80564;-64
2023/07/25 01:21:49;;;;;;;10.68;6.28;;;25.70;73.20;;;;;;6172102;27;80324;-63
2023/07/25 01:24:50;;;;;;;10.02;6.38;;;25.70;73.20;;;;;;6163955;27;80554;-58
2023/07/25 01:27:50;;;;;;;9.45;6.45;;;25.60;72.90;;;;;;6170333;27;82112;-58
2023/07/25 01:30:51;;;;;;;9.07;6.80;;;25.50;72.80;;;;;;6162632;27;82987;-57
2023/07/25 01:33:52;;;;;;;8.88;6.43;;;25.50;73.10;;;;;;6177800;28;81666;-58
2023/07/25 01:36:52;;;;;;;12.63;6.35;;;25.50;72.80;;;;;;6168571;27;81517;-58
2023/07/25 01:39:54;;;;;;;10.15;6.15;;;25.60;72.90;;;;;;6176782;27;81517;-58
2023/07/25 01:42:54;;;;;;;14.82;7.40;;;25.60;72.70;;;;;;6177319;27;80461;-65
2023/07/25 01:45:55;;;;;;;11.65;6.35;;;25.60;72.30;;;;;;6161625;27;81487;-64
2023/07/25 01:48:55;;;;;;;10.77;6.43;;;25.60;72.30;;;;;;6166168;27;88096;-65
2023/07/25 01:51:56;;;;;;;11.27;7.05;;;25.60;72.40;;;;;;6155433;27;83246;-65
2023/07/25 01:54:56;;;;;;;11.35;6.90;;;25.70;72.40;;;;;;6156826;27;81256;-66
2023/07/25 01:57:57;;;;;;;12.93;7.00;;;25.70;72.00;;;;;;6163656;27;81983;-64
2023/07/25 02:00:57;;;;;;;18.83;6.70;;;25.70;71.90;;;;;;6192710;27;83940;-62
2023/07/25 02:03:58;;;;;;;10.13;6.53;;;25.80;72.00;;;;;;6155412;27;81640;-68
2023/07/25 02:06:58;;;;;;;7.25;5.75;;;25.80;71.90;;;;;;6153071;27;82742;-64
2023/07/25 02:09:59;;;;;;;9.80;6.82;;;25.80;72.20;;;;;;6151677;27;80343;-65
2023/07/25 02:12:59;;;;;;;14.85;6.75;;;25.70;71.70;;;;;;6149685;27;82859;-64
2023/07/25 02:16:00;;;;;;;12.05;6.50;;;25.70;71.70;;;;;;6161596;27;80422;-65
2023/07/25 02:19:00;;;;;;;9.35;6.60;;;25.60;72.30;;;;;;6196124;27;83704;-58
2023/07/25 02:22:02;;;;;;;12.82;6.65;;;25.40;72.80;;;;;;6151718;27;83338;-57
2023/07/25 02:25:02;;;;;;;9.88;6.50;;;25.30;73.60;;;;;;6151540;27;81447;-57
2023/07/25 02:28:03;;;;;;;14.82;6.97;;;25.20;74.00;;;;;;6143069;27;83269;-60
2023/07/25 02:31:03;;;;;;;13.15;6.60;;;25.30;74.00;;;;;;6153986;27;83581;-59
2023/07/25 02:34:04;;;;;;;13.63;6.70;;;25.30;74.10;;;;;;6140145;27;82498;-58
2023/07/25 02:37:05;;;;;;;13.63;7.53;;;25.30;73.70;;;;;;6152001;27;81326;-64
2023/07/25 02:40:08;;;;;;;11.60;7.10;;;25.20;74.10;;;;;;6140614;27;82987;-64
2023/07/25 02:43:09;;;;;;;11.45;6.72;;;25.30;74.20;;;;;;6157086;27;80219;-65
2023/07/25 02:46:09;;;;;;;11.63;6.60;;;25.30;73.70;;;;;;6162058;27;80328;-64
2023/07/25 02:49:10;;;;;;;10.85;6.88;;;25.30;73.50;;;;;;6176050;27;82132;-64
2023/07/25 02:52:10;;;;;;;11.20;6.50;;;25.30;73.30;;;;;;6172276;27;86406;-66
2023/07/25 02:55:11;;;;;;;15.45;6.85;;;25.30;73.30;;;;;;6163406;27;82706;-59
2023/07/25 02:58:12;;;;;;;10.50;6.80;;;25.20;73.00;;;;;;6178067;27;81735;-58
2023/07/25 03:01:13;;;;;;;12.15;6.72;;;25.30;73.10;;;;;;6154200;27;82930;-57
2023/07/25 03:04:13;;;;;;;13.93;7.03;;;25.30;72.90;;;;;;6162198;27;81237;-58
2023/07/25 03:07:14;;;;;;;10.98;6.60;;;25.30;72.80;;;;;;6169203;27;80512;-57
2023/07/25 03:10:14;;;;;;;12.23;6.22;;;25.40;72.40;;;;;;6145836;27;82442;-58
2023/07/25 03:13:15;;;;;;;10.23;6.30;;;25.30;72.10;;;;;;6160981;27;83066;-66
2023/07/25 03:16:15;;;;;;;11.77;6.95;;;25.10;73.00;;;;;;6158193;27;82327;-65
2023/07/25 03:19:16;;;;;;;11.48;6.97;;;25.20;72.90;;;;;;6159227;27;80431;-66
2023/07/25 03:22:16;;;;;;;13.15;6.88;;;25.10;72.80;;;;;;6158218;27;82445;-65
2023/07/25 03:25:17;;;;;;;12.70;7.13;;;25.20;72.90;;;;;;6165598;27;80518;-65
2023/07/25 03:28:18;;;;;;;11.32;7.55;;;25.20;72.70;;;;;;6168294;27;81376;-64
2023/07/25 03:31:18;;;;;;;8.10;6.18;;;25.20;72.60;;;;;;6164744;27;83792;-58
2023/07/25 03:34:19;;;;;;;11.02;6.78;;;25.20;73.00;;;;;;6157159;27;80582;-57
2023/07/25 03:37:19;;;;;;;11.85;6.82;;;25.20;72.40;;;;;;6160102;27;83521;-58
2023/07/25 03:40:20;;;;;;;13.00;6.60;;;25.10;72.00;;;;;;6177182;27;83228;-59
2023/07/25 03:43:20;;;;;;;9.65;6.15;;;25.10;71.90;;;;;;6152787;27;81727;-60
2023/07/25 03:46:21;;;;;;;14.32;6.30;;;25.20;72.10;;;;;;6173844;27;81198;-60
2023/07/25 03:49:21;;;;;;;11.93;6.65;;;25.20;72.00;;;;;;6161478;27;83441;-64
2023/07/25 03:52:22;;;;;;;11.07;6.75;;;25.30;71.90;;;;;;6157503;27;82491;-59
2023/07/25 03:55:22;;;;;;;10.15;6.35;;;25.30;71.40;;;;;;6165990;27;83123;-60
2023/07/25 03:58:23;;;;;;;13.05;6.72;;;25.40;71.00;;;;;;6156533;27;80531;-59
2023/07/25 04:01:23;;;;;;;14.07;7.00;;;25.40;71.30;;;;;;6163797;27;83437;-59
2023/07/25 04:04:24;;;;;;;11.85;7.10;;;25.50;70.90;;;;;;6155959;27;80395;-58
2023/07/25 04:07:25;;;;;;;12.10;6.93;;;25.50;70.80;;;;;;6166925;27;83075;-57
2023/07/25 04:10:25;;;;;;;10.27;6.40;;;25.50;71.00;;;;;;6170036;27;80872;-58
2023/07/25 04:13:26;;;;;;;9.95;6.50;;;25.50;70.70;;;;;;6170221;27;83328;-59
2023/07/25 04:16:26;;;;;;;13.77;6.95;;;25.60;70.50;;;;;;6173500;27;81172;-60
2023/07/25 04:19:27;;;;;;;8.02;5.97;;;25.50;70.30;;;;;;6161009;27;82324;-60
2023/07/25 04:22:27;;;;;;;12.80;7.22;;;25.60;70.30;;;;;;6170524;27;80584;-60
2023/07/25 04:25:28;;;;;;;12.57;6.68;;;25.60;70.40;;;;;;6155118;27;81654;-59
2023/07/25 04:28:28;;;;;;;12.70;6.20;;;25.60;70.20;;;;;;6163001;27;81702;-54
2023/07/25 04:31:29;;;;;;;13.13;6.65;;;25.60;69.90;;;;;;6167946;27;80314;-58
2023/07/25 04:34:29;;;;;;;10.38;6.15;;;25.60;70.00;;;;;;6152181;27;82400;-57
2023/07/25 04:37:30;;;;;;;17.17;6.63;;;25.60;69.70;;;;;;6162735;27;80602;-59
2023/07/25 04:40:30;;;;;;;15.90;7.00;;;25.60;70.00;;;;;;6157093;27;81472;-58
2023/07/25 04:43:31;;;;;;;12.57;7.45;;;25.60;69.70;;;;;;6168120;27;80537;-59
2023/07/25 04:46:32;;;;;;;15.23;6.85;;;25.70;69.80;;;;;;6165112;27;81700;-59
2023/07/25 04:49:32;;;;;;;10.15;6.13;;;25.70;69.50;;;;;;6169556;27;81604;-58
2023/07/25 04:52:33;;;;;;;16.92;6.63;;;25.70;69.50;;;;;;6172365;27;83415;-59
2023/07/25 04:55:33;;;;;;;13.75;6.57;;;25.70;69.40;;;;;;6162801;27;83237;-60
2023/07/25 04:58:34;;;;;;;11.23;6.15;;;25.80;69.20;;;;;;6164832;27;80463;-60
2023/07/25 05:01:35;;;;;;;13.60;6.40;;;25.80;69.00;;;;;;6163190;27;83009;-58
2023/07/25 05:04:36;;;;;;;10.65;5.90;;;25.80;69.00;;;;;;6172904;27;83440;-70
2023/07/25 05:07:36;;;;;;;10.23;6.47;;;25.80;68.70;;;;;;6165183;27;82517;-69
2023/07/25 05:10:37;;;;;;;12.88;6.55;;;25.80;68.80;;;;;;6183327;27;80552;-68
2023/07/25 05:13:37;;;;;;;9.23;6.75;;;25.80;68.50;;;;;;6183185;27;80709;-70
2023/07/25 05:16:38;;;;;;;9.88;6.68;;;25.80;68.30;;;;;;6165051;27;80871;-70
2023/07/25 05:19:38;;;;;;;8.77;5.57;;;25.90;68.10;;;;;;6185720;27;82573;-71
2023/07/25 05:22:39;;;;;;;9.30;6.00;;;25.90;68.20;;;;;;6178038;27;83023;-67
2023/07/25 05:25:39;;;;;;;15.02;6.70;;;25.90;68.10;;;;;;6173291;27;81582;-70
2023/07/25 05:28:40;;;;;;;12.80;6.63;;;25.90;68.20;;;;;;6164760;27;81148;-67
2023/07/25 05:31:41;;;;;;;10.00;6.10;;;25.90;68.00;;;;;;6174061;27;80462;-68
2023/07/25 05:34:41;;;;;;;14.07;6.82;;;26.00;67.90;;;;;;6175126;27;82186;-70
2023/07/25 05:37:42;;;;;;;16.15;7.10;;;26.00;67.70;;;;;;6149809;27;81670;-70
2023/07/25 05:40:42;;;;;;;16.30;6.45;;;26.00;67.50;;;;;;6150943;27;80402;-61
2023/07/25 05:43:43;;;;;;;12.20;6.63;;;25.90;67.80;;;;;;6142768;27;84465;-61
2023/07/25 05:46:44;;;;;;;10.70;6.85;;;26.00;67.80;;;;;;6152942;27;84476;-60
2023/07/25 05:49:44;;;;;;;13.02;6.82;;;26.00;67.50;;;;;;6154542;27;82795;-63
2023/07/25 05:52:45;;;;;;;12.63;6.78;;;26.10;67.70;;;;;;6160977;27;83732;-66
2023/07/25 05:55:48;;;;;;;12.40;6.53;;;26.10;67.90;;;;;;6168215;27;80601;-62
2023/07/25 05:58:49;;;;;;;13.63;7.32;;;26.10;67.70;;;;;;6153429;27;81317;-63
2023/07/25 06:01:49;;;;;;;10.52;7.38;;;26.10;67.80;;;;;;6164210;27;80667;-62
2023/07/25 06:04:50;;;;;;;17.75;7.97;;;26.10;67.90;;;;;;6157307;27;80477;-65
2023/07/25 06:07:50;;;;;;;14.20;7.47;;;26.10;67.80;;;;;;6160742;27;81582;-63
2023/07/25 06:10:51;;;;;;;12.02;7.43;;;26.10;67.70;;;;;;6156391;27;81536;-60
2023/07/25 06:13:52;;;;;;;15.70;8.25;;;26.10;68.00;;;;;;6161239;27;80965;-61
2023/07/25 06:16:53;;;;;;;12.52;7.93;;;26.10;67.90;;;;;;6171294;27;80139;-62
2023/07/25 06:19:53;;;;;;;15.30;8.65;;;26.10;67.90;;;;;;6152000;27;80310;-64
2023/07/25 06:22:54;;;;;;;13.95;8.45;;;26.10;68.30;;;;;;6159036;27;81386;-62
2023/07/25 06:25:54;;;;;;;14.95;7.60;;;26.10;68.90;;;;;;6161277;27;82145;-62
2023/07/25 06:28:55;;;;;;;18.10;8.35;;;26.10;68.70;;;;;;6170429;27;81210;-65
2023/07/25 06:31:55;;;;;;;14.68;7.85;;;26.10;68.70;;;;;;6170655;27;82905;-62
2023/07/25 06:34:56;;;;;;;15.93;7.63;;;26.10;69.00;;;;;;6180317;27;80330;-62
2023/07/25 06:37:56;;;;;;;13.68;8.27;;;26.10;68.80;;;;;;6171460;27;81335;-67
2023/07/25 06:40:57;;;;;;;13.05;8.07;;;26.10;69.10;;;;;;6166354;27;81348;-64
2023/07/25 06:43:58;;;;;;;12.98;7.43;;;26.20;69.40;;;;;;6175372;27;80941;-64
2023/07/25 06:46:58;;;;;;;15.35;8.00;;;26.20;69.10;;;;;;6153832;27;83141;-65
2023/07/25 06:49:59;;;;;;;15.40;7.53;;;26.10;69.10;;;;;;6174399;27;80600;-63
2023/07/25 06:53:00;;;;;;;14.10;7.55;;;26.20;69.20;;;;;;6164249;27;82130;-58
2023/07/25 06:56:00;;;;;;;11.43;6.80;;;26.20;69.00;;;;;;6174625;27;81589;-59
2023/07/25 06:59:01;;;;;;;13.63;7.35;;;26.20;69.20;;;;;;6174643;27;80848;-58
2023/07/25 07:02:01;;;;;;;13.90;6.97;;;26.30;69.50;;;;;;6164345;27;83808;-58
2023/07/25 07:05:02;;;;;;;11.90;6.88;;;26.30;69.00;;;;;;6167780;27;80935;-58
2023/07/25 07:08:02;;;;;;;11.55;6.93;;;26.30;69.40;;;;;;6170697;27;82146;-58
2023/07/25 07:11:03;;;;;;;12.18;6.40;;;26.40;69.30;;;;;;6173512;27;80556;-58
2023/07/25 07:14:03;;;;;;;14.77;7.53;;;26.40;69.30;;;;;;6163557;27;80328;-60
2023/07/25 07:17:04;;;;;;;15.20;7.55;;;26.40;69.00;;;;;;6171585;27;81538;-61
2023/07/25 07:20:04;;;;;;;12.30;7.43;;;26.40;69.30;;;;;;6168239;27;81037;-62
2023/07/25 07:23:05;;;;;;;10.68;6.57;;;26.40;69.20;;;;;;6167422;27;83390;-60
2023/07/25 07:26:06;;;;;;;12.73;7.35;;;26.40;68.80;;;;;;6172352;27;81076;-61
2023/07/25 07:29:06;;;;;;;20.83;7.32;;;26.50;68.70;;;;;;6159176;27;80601;-62
2023/07/25 07:32:07;;;;;;;11.00;6.40;;;26.50;68.90;;;;;;6170343;27;80927;-66
2023/07/25 07:35:07;;;;;;;15.38;7.10;;;26.50;68.80;;;;;;6157937;27;81660;-68
2023/07/25 07:38:08;;;;;;;12.25;6.60;;;26.50;68.70;;;;;;6166024;27;83936;-72
2023/07/25 07:41:08;;;;;;;14.05;7.18;;;26.60;68.80;;;;;;6178127;27;83736;-72
2023/07/25 07:44:09;;;;;;;8.45;6.35;;;26.50;68.70;;;;;;6173483;27;80648;-71
2023/07/25 07:47:09;;;;;;;14.52;7.30;;;26.60;68.70;;;;;;6174300;27;80666;-69
2023/07/25 07:50:10;;;;;;;13.13;6.85;;;26.60;68.50;;;;;;6166652;27;82381;-62
2023/07/25 07:53:15;;;;;;;10.70;6.70;;;26.70;68.40;;;;;;6180620;27;86159;-62
2023/07/25 07:56:16;;;;;;;9.93;6.40;;;26.70;68.40;;;;;;6165253;27;82940;-62
2023/07/25 07:59:16;;;;;;;12.10;7.20;;;26.70;68.20;;;;;;6175517;27;81485;-62
2023/07/25 08:02:17;;;;;;;7.78;5.70;;;26.70;68.10;;;;;;6173480;27;80647;-61
2023/07/25 08:05:17;;;;;;;15.48;6.38;;;26.70;68.00;;;;;;6174276;27;81304;-60
2023/07/25 08:08:18;;;;;;;10.15;6.05;;;26.70;68.00;;;;;;6182179;27;80762;-61
2023/07/25 08:11:18;;;;;;;8.00;5.53;;;26.80;68.20;;;;;;6165972;27;82716;-62
2023/07/25 08:14:19;;;;;;;10.68;6.15;;;26.80;67.90;;;;;;6172349;27;80742;-63
2023/07/25 08:17:20;;;;;;;25.85;6.53;;;26.80;68.00;;;;;;6157738;27;81012;-60
2023/07/25 08:20:20;;;;;;;9.57;6.55;;;26.80;67.70;;;;;;6165127;27;81632;-61
2023/07/25 08:23:21;;;;;;;22.33;6.25;;;26.80;67.60;;;;;;6170463;27;82720;-61
2023/07/25 08:26:21;;;;;;;11.27;6.20;;;26.80;67.80;;;;;;6146771;27;84161;-59
2023/07/25 08:29:22;;;;;;;10.23;6.38;;;26.80;67.20;;;;;;6169169;27;80683;-59
2023/07/25 08:32:24;;;;;;;9.18;5.75;;;26.80;66.70;;;;;;6159076;27;80475;-58
2023/07/25 08:35:25;;;;;;;10.07;5.63;;;26.90;66.00;;;;;;6167451;27;81293;-58
2023/07/25 08:38:25;;;;;;;8.32;5.97;;;26.90;65.80;;;;;;6155694;27;82353;-59
2023/07/25 08:41:26;;;;;;;14.07;6.15;;;26.90;65.80;;;;;;6163888;27;81035;-58
2023/07/25 08:44:27;;;;;;;9.40;6.22;;;26.90;65.50;;;;;;6165556;27;82883;-59
2023/07/25 08:47:27;;;;;;;13.98;6.68;;;26.90;66.10;;;;;;6162157;27;82402;-58
2023/07/25 08:50:28;;;;;;;11.45;6.47;;;26.90;65.60;;;;;;6172849;27;81409;-57
2023/07/25 08:53:28;;;;;;;10.60;6.05;;;26.90;65.10;;;;;;6161268;27;81114;-58
2023/07/25 08:56:29;;;;;;;9.77;6.13;;;26.90;64.90;;;;;;6160025;27;80793;-58
2023/07/25 08:59:29;;;;;;;12.13;6.47;;;26.90;64.80;;;;;;6165863;27;80701;-59
2023/07/25 09:02:30;;;;;;;10.20;6.40;;;27.00;65.20;;;;;;6183282;27;81475;-62
2023/07/25 09:05:30;;;;;;;12.18;6.65;;;26.90;65.00;;;;;;6176760;27;81348;-62
2023/07/25 09:08:31;;;;;;;11.95;6.25;;;27.00;64.80;;;;;;6162560;27;80423;-59
2023/07/25 09:11:31;;;;;;;8.15;5.88;;;27.00;64.90;;;;;;6172482;27;80126;-59
2023/07/25 09:14:32;;;;;;;7.75;5.82;;;27.00;65.00;;;;;;6168719;27;80366;-61
2023/07/25 09:17:32;;;;;;;9.73;6.55;;;27.00;64.80;;;;;;6169482;27;83170;-61
2023/07/25 09:20:33;;;;;;;11.63;6.20;;;27.10;64.80;;;;;;6168444;27;82059;-73
2023/07/25 09:23:34;;;;;;;8.48;5.95;;;27.00;63.70;;;;;;6153579;27;86244;-70
2023/07/25 09:26:37;;;;;;;12.98;6.90;;;27.00;64.10;;;;;;6156857;27;81462;-65
2023/07/25 09:29:37;;;;;;;9.70;6.13;;;27.10;63.90;;;;;;6159587;27;80903;-70
2023/07/25 09:32:38;;;;;;;9.98;6.13;;;27.10;63.40;;;;;;6173065;27;80714;-66
2023/07/25 09:35:38;;;;;;;8.80;6.22;;;27.10;63.50;;;;;;6162180;27;81569;-68
2023/07/25 09:38:39;;;;;;;9.77;6.85;;;27.10;63.50;;;;;;6164342;27;81829;-66
2023/07/25 09:41:39;;;;;;;9.85;6.25;;;27.20;63.40;;;;;;6158769;27;81073;-68
2023/07/25 09:44:40;;;;;;;10.18;6.95;;;27.20;63.60;;;;;;6167367;27;80341;-68
2023/07/25 09:47:40;;;;;;;12.13;7.30;;;27.20;63.80;;;;;;6174420;27;83117;-71
2023/07/25 09:50:41;;;;;;;11.32;7.10;;;27.30;64.00;;;;;;6175460;27;80573;-73
2023/07/25 09:53:41;;;;;;;11.88;6.95;;;27.30;63.80;;;;;;6185658;27;80540;-73
2023/07/25 09:56:42;;;;;;;10.82;6.47;;;27.30;64.10;;;;;;6171075;27;80910;-62
2023/07/25 09:59:42;;;;;;;11.60;7.20;;;27.30;64.20;;;;;;6169336;27;80945;-65
2023/07/25 10:02:43;;;;;;;12.13;6.78;;;27.30;64.30;;;;;;6160769;27;81363;-61
2023/07/25 10:05:44;;;;;;;15.85;8.63;;;27.30;64.30;;;;;;6166674;27;80528;-61
2023/07/25 10:08:44;;;;;;;12.75;8.32;;;27.30;64.70;;;;;;6167266;27;80489;-63
2023/07/25 10:11:45;;;;;;;21.88;9.95;;;27.40;64.80;;;;;;6163583;27;82187;-62
2023/07/25 10:14:46;;;;;;;67.50;36.30;;;27.30;65.30;;;;;;6182645;27;83911;-62
2023/07/25 10:17:47;;;;;;;76.57;41.92;;;27.30;66.90;;;;;;6161230;27;85289;-72
2023/07/25 10:20:47;;;;;;;88.25;44.60;;;27.30;66.80;;;;;;6162173;27;83771;-71
2023/07/25 10:23:48;;;;;;;74.30;43.70;;;27.40;66.50;;;;;;6149646;27;85122;-73
2023/07/25 10:26:48;;;;;;;64.40;35.97;;;27.40;66.70;;;;;;6163471;27;83309;-74
2023/07/25 10:29:50;;;;;;;56.55;33.10;;;27.40;66.10;;;;;;6168442;27;82971;-73
2023/07/25 10:32:54;;;;;;;50.42;27.98;;;27.40;66.10;;;;;;6160006;27;84453;-73
2023/07/25 10:35:54;;;;;;;47.53;26.80;;;27.30;66.50;;;;;;6166431;27;84432;-71
2023/07/25 10:38:55;;;;;;;39.75;24.13;;;27.30;66.80;;;;;;6161907;27;83700;-73
2023/07/25 10:41:56;;;;;;;29.48;18.45;;;27.40;66.50;;;;;;6162465;27;83666;-70
2023/07/25 10:44:57;;;;;;;34.92;16.98;;;27.30;66.10;;;;;;6156728;27;84584;-71
2023/07/25 10:47:59;;;;;;;22.40;13.45;;;27.40;66.10;;;;;;6171588;27;83382;-68
2023/07/25 10:51:00;;;;;;;24.15;12.10;;;27.40;65.70;;;;;;6174746;27;83359;-73
2023/07/25 10:54:00;;;;;;;21.38;11.80;;;27.40;65.50;;;;;;6160261;27;85319;-63
2023/07/25 10:57:01;;;;;;;21.08;11.68;;;27.40;65.60;;;;;;6166887;27;83230;-64
2023/07/25 11:00:04;;;;;;;21.67;9.70;;;27.40;65.30;;;;;;6156930;27;85419;-62
2023/07/25 11:03:04;;;;;;;13.05;8.98;;;27.40;65.40;;;;;;6168430;27;84038;-63
2023/07/25 11:06:05;;;;;;;19.73;9.68;;;27.30;65.00;;;;;;6164732;27;80990;-64
2023/07/25 11:09:06;;;;;;;17.73;7.97;;;27.40;65.10;;;;;;6165848;27;81415;-62
2023/07/25 11:12:06;;;;;;;13.95;8.20;;;27.40;64.90;;;;;;6165862;27;81373;-64
2023/07/25 11:15:07;;;;;;;16.98;8.23;;;27.30;64.90;;;;;;6160187;27;81152;-65
2023/07/25 11:18:07;;;;;;;11.32;6.72;;;27.30;64.70;;;;;;6164710;27;80450;-64
2023/07/25 11:21:08;;;;;;;11.95;7.05;;;27.30;64.60;;;;;;6157156;27;82152;-64
2023/07/25 11:24:08;;;;;;;11.95;7.70;;;27.30;64.40;;;;;;6173837;27;81039;-65
2023/07/25 11:27:09;;;;;;;13.70;6.85;;;27.20;63.80;;;;;;6156676;27;81905;-66
2023/07/25 11:30:09;;;;;;;9.50;6.93;;;27.20;63.80;;;;;;6172548;27;80762;-73
2023/07/25 11:33:10;;;;;;;9.98;6.22;;;27.20;63.80;;;;;;6180314;27;80770;-69
2023/07/25 11:36:10;;;;;;;9.02;6.38;;;27.20;64.00;;;;;;6160982;27;81725;-71
2023/07/25 11:39:11;;;;;;;11.55;6.15;;;27.20;64.40;;;;;;6182808;27;80754;-69
2023/07/25 11:42:12;;;;;;;12.30;6.63;;;27.20;64.80;;;;;;6159095;27;83552;-71
2023/07/25 11:45:12;;;;;;;11.05;6.30;;;27.10;65.00;;;;;;6173798;27;80755;-69
2023/07/25 11:48:13;;;;;;;12.38;6.13;;;27.10;64.60;;;;;;6145384;27;81804;-62
2023/07/25 11:51:13;;;;;;;7.57;5.35;;;27.10;65.30;;;;;;6168220;27;81182;-62
2023/07/25 11:54:15;;;;;;;10.77;5.90;;;27.10;65.20;;;;;;6185068;27;80578;-59
2023/07/25 11:57:15;;;;;;;10.75;6.78;;;27.10;65.50;;;;;;6159279;27;82559;-62
2023/07/25 12:00:16;;;;;;;8.33;5.93;;;27.10;66.10;;;;;;6119042;27;1369099;-61
2023/07/25 12:03:17;;;;;;;11.18;6.18;;;27.00;67.10;;;;;;6162930;27;81169;-63
2023/07/25 12:06:18;;;;;;;6.88;4.97;;;27.00;68.40;;;;;;6167149;27;81292;-53
2023/07/25 12:09:19;;;;;;;10.27;5.93;;;27.00;69.10;;;;;;6150916;27;82955;-57
2023/07/25 12:12:19;;;;;;;13.65;5.57;;;27.00;69.20;;;;;;6158679;27;80938;-57
2023/07/25 12:15:20;;;;;;;10.25;5.95;;;27.10;68.80;;;;;;6162232;27;83175;-55
2023/07/25 12:18:20;;;;;;;8.05;5.53;;;27.10;69.10;;;;;;6147842;27;81575;-58
2023/07/25 12:21:21;;;;;;;7.80;5.72;;;27.10;69.00;;;;;;6163764;27;80456;-57
2023/07/25 12:24:21;;;;;;;12.05;5.97;;;27.20;68.90;;;;;;6149636;27;81725;-56
2023/07/25 12:27:22;;;;;;;9.43;6.43;;;27.20;68.70;;;;;;6165453;27;80238;-58
2023/07/25 12:30:23;;;;;;;9.98;5.97;;;27.20;68.60;;;;;;6158388;27;80792;-56
2023/07/25 12:33:23;;;;;;;8.23;5.85;;;27.20;68.10;;;;;;6164923;27;82763;-57
2023/07/25 12:36:24;;;;;;;9.43;6.10;;;27.20;68.30;;;;;;6165558;27;80821;-58
2023/07/25 12:39:24;;;;;;;8.25;5.68;;;27.20;68.20;;;;;;6150982;27;80555;-53
2023/07/25 12:42:25;;;;;;;8.68;6.07;;;27.20;68.70;;;;;;6163464;27;80284;-60
2023/07/25 12:45:25;;;;;;;9.50;5.72;;;27.20;67.20;;;;;;6163277;27;80923;-59
2023/07/25 12:48:26;;;;;;;7.03;5.28;;;27.20;67.80;;;;;;6177471;27;82952;-59
2023/07/25 12:51:27;;;;;;;6.80;4.75;;;27.10;66.60;;;;;;6159382;27;81934;-61
2023/07/25 12:54:27;;;;;;;9.63;5.75;;;27.10;66.00;;;;;;6173450;27;81375;-62
2023/07/25 12:57:29;;;;;;;7.35;5.13;;;27.10;65.50;;;;;;6170144;27;80941;-59
2023/07/25 13:00:30;;;;;;;8.10;5.28;;;27.10;65.80;;;;;;6166695;27;81054;-59
2023/07/25 13:03:30;;;;;;;8.82;5.53;;;27.10;66.00;;;;;;6172891;27;80994;-64
2023/07/25 13:06:31;;;;;;;6.45;4.95;;;27.00;65.60;;;;;;6157294;27;81294;-63
2023/07/25 13:09:31;;;;;;;7.20;5.22;;;27.00;65.50;;;;;;6167718;27;80689;-63
2023/07/25 13:12:32;;;;;;;8.50;5.07;;;26.90;65.30;;;;;;6156574;27;83310;-62
2023/07/25 13:15:33;;;;;;;6.85;4.55;;;27.00;65.60;;;;;;6164748;27;81542;-63
2023/07/25 13:18:33;;;;;;;8.10;4.15;;;26.90;65.20;;;;;;6173095;27;85403;-64
2023/07/25 13:21:34;;;;;;;6.32;4.18;;;27.00;65.30;;;;;;6163446;27;82514;-62
2023/07/25 13:24:35;;;;;;;7.35;5.13;;;26.90;65.40;;;;;;6160126;27;82443;-61
2023/07/25 13:27:35;;;;;;;8.07;4.63;;;27.00;65.70;;;;;;6161157;27;80558;-59
2023/07/25 13:30:36;;;;;;;9.63;4.82;;;27.00;67.00;;;;;;6171771;27;81047;-63
2023/07/25 13:33:36;;;;;;;7.90;5.03;;;26.90;66.80;;;;;;6161519;27;81982;-61
2023/07/25 13:36:37;;;;;;;7.13;4.35;;;26.80;67.90;;;;;;6172020;27;80835;-61
2023/07/25 13:39:37;;;;;;;10.25;5.32;;;26.80;69.20;;;;;;6172780;27;82477;-59
2023/07/25 13:42:38;;;;;;;6.22;4.60;;;26.80;70.10;;;;;;6156684;27;81629;-60
2023/07/25 13:45:39;;;;;;;6.68;4.47;;;26.80;70.80;;;;;;6182708;27;80301;-61
2023/07/25 13:48:39;;;;;;;9.30;4.57;;;26.70;71.10;;;;;;6161236;27;82395;-60
2023/07/25 13:51:40;;;;;;;7.18;4.22;;;26.60;71.10;;;;;;6170798;27;80180;-61
2023/07/25 13:54:40;;;;;;;8.00;4.03;;;26.50;70.10;;;;;;6162447;27;81209;-62
2023/07/25 13:57:41;;;;;;;6.60;3.92;;;26.40;70.30;;;;;;6170969;27;80552;-61
2023/07/25 14:00:42;;;;;;;11.20;4.05;;;26.30;70.00;;;;;;6171095;27;80779;-65
2023/07/25 14:03:42;;;;;;;11.25;4.45;;;26.20;70.40;;;;;;6164095;27;82284;-60
2023/07/25 14:06:43;;;;;;;5.95;4.25;;;26.10;71.40;;;;;;6171443;27;84618;-60
2023/07/25 14:09:44;;;;;;;8.52;5.05;;;26.00;72.00;;;;;;6159503;27;81739;-59
2023/07/25 14:12:45;;;;;;;10.63;4.53;;;26.00;72.60;;;;;;6168448;27;80363;-58
2023/07/25 14:15:45;;;;;;;7.20;4.10;;;26.00;72.60;;;;;;6161134;27;81826;-54
2023/07/25 14:18:46;;;;;;;6.32;4.32;;;25.80;72.90;;;;;;6170642;27;80245;-60
2023/07/25 14:21:46;;;;;;;7.63;4.47;;;25.80;73.30;;;;;;6170408;27;81542;-56
2023/07/25 14:24:47;;;;;;;12.60;5.07;;;25.90;73.80;;;;;;6152450;27;82021;-58
2023/07/25 14:27:48;;;;;;;10.98;4.75;;;25.90;73.90;;;;;;6161414;27;80536;-57
2023/07/25 14:30:49;;;;;;;7.38;4.20;;;26.00;73.60;;;;;;6157629;27;80922;-57
2023/07/25 14:33:50;;;;;;;11.57;4.13;;;26.10;73.60;;;;;;6165481;27;81413;-58
2023/07/25 14:36:50;;;;;;;6.68;3.97;;;26.10;73.00;;;;;;6155421;27;81846;-57
2023/07/25 14:39:52;;;;;;;9.68;4.18;;;26.00;72.70;;;;;;6165362;27;80341;-58
2023/07/25 14:42:53;;;;;;;7.63;3.42;;;26.10;72.70;;;;;;6165533;27;81302;-59
2023/07/25 14:45:53;;;;;;;6.88;4.63;;;26.00;72.30;;;;;;6175237;27;80392;-58
2023/07/25 14:48:54;;;;;;;6.72;3.78;;;26.00;71.90;;;;;;6171977;27;80040;-59
2023/07/25 14:51:54;;;;;;;6.18;4.07;;;25.80;72.40;;;;;;6152036;27;82435;-59
2023/07/25 14:54:55;;;;;;;7.55;4.28;;;25.90;72.90;;;;;;6147836;27;83053;-58
2023/07/25 14:57:55;;;;;;;5.63;3.70;;;25.90;72.30;;;;;;6149714;27;82032;-56
2023/07/25 15:00:56;;;;;;;4.40;3.70;;;26.00;71.90;;;;;;6153887;27;85604;-59
2023/07/25 15:03:56;;;;;;;6.72;3.83;;;26.00;71.70;;;;;;6158485;27;86309;-59
2023/07/25 15:06:57;;;;;;;5.30;3.35;;;25.90;71.30;;;;;;6155007;27;81922;-58
2023/07/25 15:09:58;;;;;;;4.72;3.63;;;26.00;71.20;;;;;;6166655;27;80839;-70
2023/07/25 15:12:58;;;;;;;9.48;3.67;;;26.00;71.20;;;;;;6155942;27;84751;-69
2023/07/25 15:15:59;;;;;;;5.43;3.63;;;26.10;71.00;;;;;;6163925;27;81022;-70
2023/07/25 15:18:59;;;;;;;5.85;3.75;;;26.10;70.90;;;;;;6167769;27;80561;-68
2023/07/25 15:22:00;;;;;;;7.82;3.80;;;26.10;70.80;;;;;;6161673;27;83346;-72
2023/07/25 15:25:00;;;;;;;5.82;3.53;;;26.20;70.60;;;;;;6170057;27;82739;-71
2023/07/25 15:28:01;;;;;;;5.47;3.28;;;26.10;70.30;;;;;;6156785;27;80263;-61
2023/07/25 15:31:02;;;;;;;7.07;3.97;;;26.20;69.90;;;;;;6169455;27;80391;-59